createdAt,value
2022-10-17T01:05:07.970Z,100380.03
2022-10-17T01:07:42.546Z,100382.09
2022-10-17T01:10:17.771Z,100379.81
2022-10-17T01:12:57.295Z,100385.38
2022-10-17T01:15:49.004Z,100385.56
2022-10-17T01:18:52.340Z,100387.63
2022-10-17T01:21:38.516Z,100386.59
2022-10-17T01:24:41.815Z,100388.22
2022-10-17T01:27:25.938Z,100380.81
2022-10-17T01:35:11.661Z,100391.50
2022-10-17T01:37:59.203Z,100389.59
2022-10-17T01:44:49.544Z,100402.53
2022-10-17T01:47:26.639Z,100401.69
2022-10-17T01:50:05.699Z,100396.78
2022-10-17T01:53:09.016Z,100397.16
2022-10-17T01:55:50.134Z,100399.59
2022-10-17T01:59:18.850Z,100396.09
2022-10-17T02:01:53.664Z,100393.03
2022-10-17T02:04:21.498Z,100402.66
2022-10-17T02:06:49.006Z,100398.38
2022-10-17T02:09:24.746Z,100399.16
2022-10-17T02:12:29.573Z,100399.53
2022-10-17T02:19:59.045Z,100404.03
2022-10-17T02:28:11.366Z,100397.81
2022-10-17T02:31:06.885Z,100400.25
2022-10-17T02:33:56.487Z,100399.44
2022-10-17T02:36:32.912Z,100402.31
2022-10-17T02:44:03.553Z,100395.91
2022-10-17T02:46:33.670Z,100405.13
2022-10-17T02:49:17.461Z,100405.34
2022-10-17T02:51:58.986Z,100409.59
2022-10-17T02:54:42.648Z,100413.28
2022-10-17T02:57:29.750Z,100419.38
2022-10-17T03:00:02.399Z,100414.44
2022-10-17T03:07:18.317Z,100427.53
2022-10-17T03:10:00.756Z,100426.28
2022-10-17T03:12:31.869Z,100423.78
2022-10-17T03:14:59.662Z,100421.72
2022-10-17T03:17:33.748Z,100434.44
2022-10-17T03:20:02.047Z,100422.13
2022-10-17T03:22:31.033Z,100431.97
2022-10-17T03:25:00.214Z,100441.81
2022-10-17T03:33:18.045Z,100437.63
2022-10-17T03:35:45.648Z,100444.97
2022-10-17T03:38:17.657Z,100457.31
2022-10-17T03:40:45.719Z,100451.94
2022-10-17T03:43:16.013Z,100462.38
2022-10-17T03:45:43.505Z,100459.25
2022-10-17T03:48:11.773Z,100468.28
2022-10-17T03:50:39.297Z,100464.56
2022-10-17T03:53:06.565Z,100460.06
2022-10-17T03:55:34.056Z,100457.59
2022-10-17T04:02:53.883Z,100465.72
2022-10-17T04:05:21.685Z,100458.09
2022-10-17T04:07:49.346Z,100467.31
2022-10-17T04:10:19.915Z,100469.13
2022-10-17T04:12:47.957Z,100470.53
2022-10-17T04:15:15.395Z,100469.72
2022-10-17T04:17:42.677Z,100473.59
2022-10-17T04:20:11.106Z,100479.94
2022-10-17T04:22:38.846Z,100469.28
2022-10-17T04:25:08.054Z,100472.31
2022-10-17T04:33:21.286Z,100468.13
2022-10-17T04:36:00.022Z,100476.94
2022-10-17T04:38:52.629Z,100466.47
2022-10-17T04:41:20.750Z,100476.88
2022-10-17T04:43:51.036Z,100477.69
2022-10-17T04:46:20.123Z,100480.53
2022-10-17T04:48:48.908Z,100484.59
2022-10-17T04:51:21.802Z,100484.59
2022-10-17T04:54:23.376Z,100485.72
2022-10-17T04:56:58.038Z,100490.78
2022-10-17T04:59:29.085Z,100502.00
2022-10-17T05:02:17.219Z,100501.53
2022-10-17T05:04:55.674Z,100502.53
2022-10-17T05:07:23.470Z,100505.47
2022-10-17T05:10:18.542Z,100498.78
2022-10-17T05:12:52.390Z,100499.16
2022-10-17T05:15:23.467Z,100499.50
2022-10-17T05:18:05.446Z,100495.84
2022-10-17T05:20:37.452Z,100493.00
2022-10-17T05:26:13.985Z,100496.69
2022-10-17T05:28:44.204Z,100507.16
2022-10-17T05:59:22.883Z,100535.41
2022-10-17T06:02:22.991Z,100538.97
2022-10-17T06:04:51.470Z,100550.75
2022-10-17T06:07:22.160Z,100548.59
2022-10-17T06:09:49.853Z,100549.09
2022-10-17T06:12:57.858Z,100558.47
2022-10-17T06:16:22.350Z,100559.44
2022-10-17T06:24:44.500Z,100563.03
2022-10-17T06:33:44.813Z,100565.84
2022-10-17T06:36:15.351Z,100571.91
2022-10-17T06:44:00.844Z,100572.13
2022-10-17T06:48:20.486Z,100587.06
2022-10-17T06:51:38.336Z,100594.38
2022-10-17T06:54:14.256Z,100589.69
2022-10-17T06:58:29.815Z,100582.50
2022-10-17T07:01:13.053Z,100573.84
2022-10-17T07:03:43.767Z,100580.44
2022-10-17T07:06:12.861Z,100579.63
2022-10-17T07:08:46.140Z,100577.53
2022-10-17T07:11:21.018Z,100587.84
2022-10-17T07:13:50.929Z,100592.75
2022-10-17T07:16:18.424Z,100596.00
2022-10-17T07:18:51.464Z,100581.91
2022-10-17T07:21:20.856Z,100580.78
2022-10-17T07:23:47.855Z,100589.53
2022-10-17T07:26:17.768Z,100594.78
2022-10-17T07:28:55.158Z,100589.75
2022-10-17T07:31:30.032Z,100595.16
2022-10-17T07:34:00.342Z,100591.13
2022-10-17T07:36:29.006Z,100587.69
2022-10-17T07:38:57.059Z,100588.41
2022-10-17T07:41:27.769Z,100584.75
2022-10-17T07:43:55.912Z,100584.38
2022-10-17T07:46:29.503Z,100574.59
2022-10-17T07:48:56.667Z,100578.09
2022-10-17T07:51:24.714Z,100574.06
2022-10-17T07:53:52.018Z,100574.16
2022-10-17T07:56:19.214Z,100575.84
2022-10-17T07:58:48.160Z,100576.69
2022-10-17T08:01:16.226Z,100580.25
2022-10-17T08:03:50.656Z,100579.13
2022-10-17T08:06:18.553Z,100575.81
2022-10-17T08:08:45.590Z,100576.88
2022-10-17T08:11:15.426Z,100586.03
2022-10-17T08:13:42.945Z,100580.97
2022-10-17T08:16:13.105Z,100581.97
2022-10-17T08:18:42.348Z,100573.69
2022-10-17T08:21:11.439Z,100572.22
2022-10-17T08:23:39.054Z,100557.75
2022-10-17T08:26:10.421Z,100563.22
2022-10-17T08:28:40.393Z,100557.44
2022-10-17T08:31:15.000Z,100556.19
2022-10-17T08:33:42.747Z,100563.47
2022-10-17T08:36:13.113Z,100558.56
2022-10-17T08:38:43.632Z,100552.88
2022-10-17T08:41:47.684Z,100551.50
2022-10-17T08:44:45.399Z,100559.63
2022-10-17T08:47:35.507Z,100564.78
2022-10-17T08:50:14.772Z,100570.41
2022-10-17T08:52:51.852Z,100576.44
2022-10-17T08:55:34.084Z,100570.19
2022-10-17T08:58:01.771Z,100568.09
2022-10-17T09:00:31.925Z,100576.25
2022-10-17T09:03:33.263Z,100573.09
2022-10-17T09:06:20.674Z,100572.63
2022-10-17T09:09:17.585Z,100569.41
2022-10-17T09:12:18.057Z,100570.53
2022-10-17T09:15:37.382Z,100553.38
2022-10-17T09:18:33.464Z,100556.53
2022-10-17T09:21:17.635Z,100555.59
2022-10-17T09:24:09.003Z,100557.31
2022-10-17T09:26:41.027Z,100553.81
2022-10-17T09:29:21.293Z,100559.56
2022-10-17T09:32:17.382Z,100551.63
2022-10-17T09:34:44.898Z,100557.66
2022-10-17T09:37:16.843Z,100558.34
2022-10-17T09:39:45.519Z,100546.50
2022-10-17T09:42:21.314Z,100556.94
2022-10-17T09:45:19.527Z,100557.50
2022-10-17T09:48:10.503Z,100555.34
2022-10-17T09:50:37.730Z,100559.47
2022-10-17T09:53:23.346Z,100551.00
2022-10-17T09:55:57.739Z,100559.22
2022-10-17T09:58:50.271Z,100549.91
2022-10-17T10:01:24.074Z,100560.25
2022-10-17T10:04:14.785Z,100552.59
2022-10-17T10:07:03.150Z,100550.69
2022-10-17T10:09:36.799Z,100550.41
2022-10-17T10:12:21.960Z,100551.41
2022-10-17T10:14:53.271Z,100542.91
2022-10-17T10:17:33.450Z,100538.28
2022-10-17T10:20:08.549Z,100547.53
2022-10-17T10:22:36.485Z,100542.63
2022-10-17T10:25:10.874Z,100542.00
2022-10-17T10:27:41.544Z,100544.00
2022-10-17T10:30:39.165Z,100538.00
2022-10-17T10:33:11.747Z,100538.81
2022-10-17T10:35:39.469Z,100538.50
2022-10-17T10:38:18.167Z,100530.16
2022-10-17T10:40:56.705Z,100520.38
2022-10-17T10:43:46.081Z,100526.50
2022-10-17T10:46:24.999Z,100521.22
2022-10-17T10:49:03.275Z,100517.34
2022-10-17T10:51:49.444Z,100514.09
2022-10-17T10:54:35.662Z,100509.56
2022-10-17T10:57:10.782Z,100506.19
2022-10-17T11:00:25.081Z,100507.19
2022-10-17T11:03:36.134Z,100508.22
2022-10-17T11:06:21.299Z,100502.50
2022-10-17T11:09:32.976Z,100497.38
2022-10-17T11:12:12.188Z,100498.63
2022-10-17T11:15:20.418Z,100490.72
2022-10-17T11:18:16.221Z,100491.72
2022-10-17T11:21:10.396Z,100489.75
2022-10-17T11:23:47.189Z,100493.22
2022-10-17T11:26:31.602Z,100490.03
2022-10-17T11:29:03.756Z,100485.00
2022-10-17T11:31:37.182Z,100482.31
2022-10-17T11:34:26.170Z,100485.97
2022-10-17T11:37:02.568Z,100484.41
2022-10-17T11:42:25.798Z,100480.44
2022-10-17T11:45:04.663Z,100474.16
2022-10-17T11:47:58.661Z,100474.00
2022-10-17T11:53:28.564Z,100471.63
2022-10-17T11:56:01.142Z,100466.06
2022-10-17T11:58:51.213Z,100463.22
2022-10-17T12:01:46.855Z,100470.25
2022-10-17T12:04:42.787Z,100464.78
2022-10-17T12:07:48.645Z,100467.41
2022-10-17T12:10:43.164Z,100465.19
2022-10-17T12:13:28.535Z,100466.78
2022-10-17T12:16:19.120Z,100463.84
2022-10-17T12:19:07.262Z,100455.38
2022-10-17T12:22:00.711Z,100461.28
2022-10-17T12:24:43.315Z,100452.03
2022-10-17T12:27:46.233Z,100442.56
2022-10-17T12:30:16.646Z,100448.88
2022-10-17T12:33:07.363Z,100444.50
2022-10-17T12:35:38.766Z,100434.63
2022-10-17T12:38:18.582Z,100432.00
2022-10-17T12:40:49.067Z,100443.06
2022-10-17T12:43:16.510Z,100442.81
2022-10-17T12:45:57.801Z,100435.47
2022-10-17T12:48:34.384Z,100427.00
2022-10-17T12:51:34.803Z,100429.41
2022-10-17T12:54:12.652Z,100426.22
2022-10-17T12:56:46.690Z,100430.78
2022-10-17T12:59:28.990Z,100420.47
2022-10-17T13:02:03.312Z,100422.94
2022-10-17T13:04:36.130Z,100422.81
2022-10-17T13:07:04.276Z,100419.84
2022-10-17T13:09:42.785Z,100417.22
2022-10-17T13:12:25.159Z,100421.88
2022-10-17T13:14:54.942Z,100412.81
2022-10-17T13:17:30.725Z,100423.34
2022-10-17T13:19:58.409Z,100415.09
2022-10-17T13:22:32.063Z,100419.53
2022-10-17T13:25:19.359Z,100426.91
2022-10-17T13:27:48.882Z,100426.53
2022-10-17T13:30:35.878Z,100418.84
2022-10-17T13:33:16.228Z,100421.72
2022-10-17T13:38:35.812Z,100417.31
2022-10-17T13:41:34.692Z,100421.44
2022-10-17T13:44:06.459Z,100427.28
2022-10-17T13:46:38.510Z,100423.16
2022-10-17T13:49:35.349Z,100423.88
2022-10-17T13:52:06.236Z,100417.78
2022-10-17T13:54:43.026Z,100417.50
2022-10-17T13:57:32.846Z,100416.38
2022-10-17T14:00:12.405Z,100426.13
2022-10-17T14:02:41.885Z,100418.00
2022-10-17T14:05:20.403Z,100414.94
2022-10-17T14:08:13.762Z,100419.00
2022-10-17T14:10:44.819Z,100413.09
2022-10-17T14:13:23.851Z,100413.28
2022-10-17T14:16:10.816Z,100421.16
2022-10-17T14:18:47.369Z,100421.91
2022-10-17T14:24:31.530Z,100420.63
2022-10-17T14:27:00.607Z,100420.78
2022-10-17T14:29:32.801Z,100422.03
2022-10-17T14:32:08.581Z,100418.66
2022-10-17T14:34:40.714Z,100422.00
2022-10-17T14:37:37.815Z,100419.72
2022-10-17T14:40:10.650Z,100426.94
2022-10-17T14:42:40.505Z,100423.25
2022-10-17T14:45:14.600Z,100424.19
2022-10-17T14:47:44.285Z,100426.22
2022-10-17T14:50:11.562Z,100416.75
2022-10-17T14:52:39.034Z,100419.28
2022-10-17T14:55:35.363Z,100421.84
2022-10-17T14:58:22.751Z,100418.94
2022-10-17T15:00:50.141Z,100427.78
2022-10-17T15:03:19.226Z,100420.19
2022-10-17T15:05:48.519Z,100423.56
2022-10-17T15:08:21.879Z,100426.94
2022-10-17T15:10:51.020Z,100420.97
2022-10-17T15:13:39.981Z,100424.31
2022-10-17T15:16:27.230Z,100418.91
2022-10-17T15:18:54.837Z,100418.44
2022-10-17T15:21:39.276Z,100414.69
2022-10-17T15:24:09.150Z,100418.84
2022-10-17T15:26:37.391Z,100423.00
2022-10-17T15:29:04.543Z,100419.78
2022-10-17T15:31:32.223Z,100430.47
2022-10-17T15:33:59.618Z,100423.69
2022-10-17T15:36:35.745Z,100432.50
2022-10-17T15:39:05.339Z,100434.13
2022-10-17T15:41:33.604Z,100435.28
2022-10-17T15:44:01.117Z,100440.78
2022-10-17T15:46:35.598Z,100438.63
2022-10-17T15:49:09.957Z,100439.47
2022-10-17T15:51:38.389Z,100438.13
2022-10-17T15:54:06.493Z,100445.28
2022-10-17T15:56:55.431Z,100446.94
2022-10-17T15:59:34.395Z,100444.19
2022-10-17T16:02:03.262Z,100456.72
2022-10-17T16:09:35.165Z,100454.31
2022-10-17T16:12:14.148Z,100458.97
2022-10-17T16:14:41.685Z,100454.31
2022-10-17T16:17:32.724Z,100450.25
2022-10-17T16:20:00.731Z,100463.25
2022-10-17T16:22:38.563Z,100470.09
2022-10-17T16:25:19.374Z,100470.84
2022-10-17T16:28:09.277Z,100465.97
2022-10-17T16:30:45.014Z,100468.66
2022-10-17T16:33:22.057Z,100466.44
2022-10-17T16:51:11.177Z,100461.84
2022-10-17T17:15:22.153Z,100464.03
2022-10-17T18:07:45.266Z,100471.47
2022-10-17T18:15:12.667Z,100469.00
2022-10-17T18:17:40.625Z,100466.22
2022-10-17T18:20:08.478Z,100473.94
2022-10-17T18:22:37.422Z,100467.88
2022-10-17T18:25:06.575Z,100480.50
2022-10-17T18:27:33.909Z,100478.19
2022-10-17T18:30:01.245Z,100472.94
2022-10-17T18:32:31.898Z,100472.28
2022-10-17T18:34:59.417Z,100466.22
2022-10-17T18:37:26.785Z,100462.59
2022-10-17T18:39:56.014Z,100462.50
2022-10-17T18:42:23.967Z,100470.53
2022-10-17T18:44:51.425Z,100468.78
2022-10-17T18:47:21.636Z,100473.50
2022-10-17T18:49:49.027Z,100477.38
2022-10-17T18:52:16.358Z,100464.59
2022-10-17T18:54:43.874Z,100467.69
2022-10-17T18:57:11.481Z,100469.72
2022-10-17T18:59:43.699Z,100473.38
2022-10-17T19:02:15.054Z,100473.50
2022-10-17T19:04:42.427Z,100479.63
2022-10-17T19:07:11.153Z,100467.66
2022-10-17T19:09:39.060Z,100478.38
2022-10-17T19:12:06.706Z,100479.31
2022-10-17T19:14:34.576Z,100476.50
2022-10-17T19:17:28.676Z,100476.63
2022-10-17T19:36:10.275Z,100481.91
2022-10-17T19:38:38.172Z,100479.09
2022-10-17T19:41:12.856Z,100478.38
2022-10-17T19:50:16.601Z,100486.59
2022-10-17T19:52:44.163Z,100489.63
2022-10-17T19:55:11.470Z,100486.78
2022-10-17T19:57:39.086Z,100484.78
2022-10-17T20:00:34.740Z,100483.84
2022-10-17T20:03:02.897Z,100486.66
2022-10-17T20:06:07.538Z,100489.41
2022-10-17T20:08:35.266Z,100483.88
2022-10-17T20:11:10.461Z,100480.03
2022-10-17T20:14:05.116Z,100497.56
2022-10-17T20:48:24.743Z,100496.56
2022-10-17T20:51:13.115Z,100495.81
2022-10-17T21:19:56.154Z,100479.53
